Time,TemperatureF,DewpointF,PressureIn,WindDirection,WindDirectionDegrees,WindSpeedMPH,WindSpeedGustMPH,Humidity,HourlyPrecipIn,Conditions,Clouds,dailyrainin,SoftwareType,DateUTC
2013-05-31 00:00:00,72.4,70.6,29.19,SSE,155,8.0,9.0,94,0.00,,,0.00,Wunderground v.1.15,2013-05-31 05:00:00,
2013-05-31 00:10:00,72.4,70.6,29.18,SE,124,7.0,13.0,94,0.00,,,0.00,Wunderground v.1.15,2013-05-31 05:10:00,
2013-05-31 00:15:00,72.4,70.6,29.18,SSE,156,8.0,13.0,94,0.00,,,0.00,Wunderground v.1.15,2013-05-31 05:15:00,
2013-05-31 00:25:00,72.3,70.8,29.18,SE,134,8.0,13.0,95,0.00,,,0.00,Wunderground v.1.15,2013-05-31 05:25:00,
2013-05-31 00:35:00,72.2,70.7,29.18,SSE,155,8.0,13.0,95,0.00,,,0.00,Wunderground v.1.15,2013-05-31 05:35:00,
2013-05-31 00:45:00,72.1,70.6,29.18,SSE,160,8.0,13.0,95,0.00,,,0.00,Wunderground v.1.15,2013-05-31 05:45:00,
2013-05-31 00:50:00,72.1,70.6,29.18,South,169,8.0,8.0,95,0.00,,,0.00,Wunderground v.1.15,2013-05-31 05:50:00,
2013-05-31 01:05:00,72.1,70.6,29.18,ESE,122,9.0,9.0,95,0.00,,,0.00,Wunderground v.1.15,2013-05-31 06:05:00,
2013-05-31 01:15:00,72.1,70.6,29.17,ESE,108,8.0,8.0,95,0.00,,,0.00,Wunderground v.1.15,2013-05-31 06:15:00,
2013-05-31 01:20:00,72.2,70.7,29.17,ESE,108,8.0,13.0,95,0.00,,,0.00,Wunderground v.1.15,2013-05-31 06:20:00,
2013-05-31 01:30:00,72.3,70.8,29.17,SSE,152,9.0,13.0,95,0.00,,,0.00,Wunderground v.1.15,2013-05-31 06:30:00,
2013-05-31 01:40:00,72.2,70.7,29.17,SE,136,9.0,13.0,95,0.00,,,0.00,Wunderground v.1.15,2013-05-31 06:40:00,
2013-05-31 01:50:00,72.1,70.6,29.17,SE,141,8.0,13.0,95,0.00,,,0.00,Wunderground v.1.15,2013-05-31 06:50:00,
2013-05-31 01:55:00,72.3,70.8,29.17,SE,144,9.0,14.0,95,0.00,,,0.00,Wunderground v.1.15,2013-05-31 06:55:00,
2013-05-31 02:05:00,72.7,70.9,29.17,ESE,120,10.0,10.0,94,0.00,,,0.00,Wunderground v.1.15,2013-05-31 07:05:00,
2013-05-31 02:15:00,72.9,71.1,29.17,ESE,113,10.0,10.0,94,0.00,,,0.00,Wunderground v.1.15,2013-05-31 07:15:00,
2013-05-31 02:25:00,73.1,71.0,29.17,SSE,164,14.0,14.0,93,0.00,,,0.00,Wunderground v.1.15,2013-05-31 07:25:00,
2013-05-31 02:35:00,73.2,71.1,29.17,SE,139,13.0,13.0,93,0.00,,,0.00,Wunderground v.1.15,2013-05-31 07:35:00,
2013-05-31 02:45:00,72.4,70.3,29.17,ESE,113,16.0,16.0,93,0.00,,,0.00,Wunderground v.1.15,2013-05-31 07:45:00,
2013-05-31 02:50:00,-999.9,-99.9,29.16,North,32767,-999.0,16.0,255,-99.99,,,0.00,Wunderground v.1.15,2013-05-31 07:50:00,
2013-05-31 03:05:00,-999.9,-99.9,29.17,North,32767,-999.0,13.0,255,-99.99,,,0.00,Wunderground v.1.15,2013-05-31 08:05:00,
2013-05-31 03:15:00,-999.9,-99.9,29.17,North,32767,-999.0,13.0,255,-99.99,,,0.00,Wunderground v.1.15,2013-05-31 08:15:00,
2013-05-31 03:20:00,-999.9,-99.9,29.17,North,32767,-999.0,13.0,255,-99.99,,,0.00,Wunderground v.1.15,2013-05-31 08:20:00,
2013-05-31 03:30:00,-999.9,-99.9,29.18,North,32767,-999.0,13.0,255,-99.99,,,0.00,Wunderground v.1.15,2013-05-31 08:30:00,
2013-05-31 03:40:00,-999.9,-99.9,29.18,North,32767,-999.0,13.0,255,-99.99,,,0.00,Wunderground v.1.15,2013-05-31 08:40:00,
2013-05-31 03:50:00,-999.9,-99.9,29.18,North,32767,-999.0,13.0,255,-99.99,,,0.00,Wunderground v.1.15,2013-05-31 08:50:00,
2013-05-31 03:55:00,-999.9,-99.9,29.18,North,32767,-999.0,13.0,255,-99.99,,,0.00,Wunderground v.1.15,2013-05-31 08:55:00,
2013-05-31 04:05:00,-999.9,-99.9,29.18,North,32767,-999.0,13.0,255,-99.99,,,0.00,Wunderground v.1.15,2013-05-31 09:05:00,
2013-05-31 04:15:00,-999.9,-99.9,29.18,North,32767,-999.0,13.0,255,-99.99,,,0.00,Wunderground v.1.15,2013-05-31 09:15:00,
2013-05-31 04:25:00,-999.9,-99.9,29.18,North,32767,-999.0,13.0,255,-99.99,,,0.00,Wunderground v.1.15,2013-05-31 09:25:00,
2013-05-31 04:35:00,-999.9,-99.9,29.19,North,32767,-999.0,13.0,255,-99.99,,,0.00,Wunderground v.1.15,2013-05-31 09:35:00,
2013-05-31 04:45:00,-999.9,-99.9,29.19,North,32767,-999.0,13.0,255,-99.99,,,0.00,Wunderground v.1.15,2013-05-31 09:45:00,
2013-05-31 04:55:00,-999.9,-99.9,29.19,North,32767,-999.0,13.0,255,-99.99,,,0.00,Wunderground v.1.15,2013-05-31 09:55:00,
2013-05-31 05:05:00,-999.9,-99.9,29.19,North,32767,-999.0,13.0,255,-99.99,,,0.00,Wunderground v.1.15,2013-05-31 10:05:00,
2013-05-31 05:15:00,-999.9,-99.9,29.19,North,32767,-999.0,13.0,255,-99.99,,,0.00,Wunderground v.1.15,2013-05-31 10:15:00,
2013-05-31 05:25:00,-999.9,-99.9,29.20,North,32767,-999.0,13.0,255,-99.99,,,0.00,Wunderground v.1.15,2013-05-31 10:25:00,
2013-05-31 05:30:00,-999.9,-99.9,29.20,North,32767,-999.0,13.0,255,-99.99,,,0.00,Wunderground v.1.15,2013-05-31 10:30:00,
2013-05-31 05:40:00,-999.9,-99.9,29.19,North,32767,-999.0,13.0,255,-99.99,,,0.00,Wunderground v.1.15,2013-05-31 10:40:00,
2013-05-31 05:50:00,-999.9,-99.9,29.19,North,32767,-999.0,13.0,255,-99.99,,,0.00,Wunderground v.1.15,2013-05-31 10:50:00,
2013-05-31 05:55:00,-999.9,-99.9,29.19,North,32767,-999.0,13.0,255,-99.99,,,0.00,Wunderground v.1.15,2013-05-31 10:55:00,
2013-05-31 06:00:00,-999.9,-99.9,29.19,North,32767,-999.0,13.0,255,-99.99,,,0.00,Wunderground v.1.15,2013-05-31 11:00:00,
2013-05-31 06:10:00,-999.9,-99.9,29.19,North,32767,-999.0,13.0,255,-99.99,,,0.00,Wunderground v.1.15,2013-05-31 11:10:00,
2013-05-31 06:20:00,-999.9,-99.9,29.20,North,32767,-999.0,13.0,255,-99.99,,,0.00,Wunderground v.1.15,2013-05-31 11:20:00,
2013-05-31 06:30:00,-999.9,-99.9,29.22,North,32767,-999.0,13.0,255,-99.99,,,0.00,Wunderground v.1.15,2013-05-31 11:30:00,
2013-05-31 06:40:00,-999.9,-99.9,29.21,North,32767,-999.0,13.0,255,-99.99,,,0.00,Wunderground v.1.15,2013-05-31 11:40:00,
2013-05-31 06:50:00,-999.9,-99.9,29.21,North,32767,-999.0,13.0,255,-99.99,,,0.00,Wunderground v.1.15,2013-05-31 11:50:00,
2013-05-31 07:01:00,-999.9,-99.9,29.21,North,32767,-999.0,13.0,255,-99.99,,,0.00,Wunderground v.1.15,2013-05-31 12:01:00,
2013-05-31 07:10:00,-999.9,-99.9,29.21,North,32767,-999.0,13.0,255,-99.99,,,0.00,Wunderground v.1.15,2013-05-31 12:10:00,
2013-05-31 07:20:00,77.0,72.1,29.21,South,177,9.0,13.0,85,0.00,,,0.00,Wunderground v.1.15,2013-05-31 12:20:00,
2013-05-31 07:30:00,77.0,72.1,29.21,SSE,167,9.0,13.0,85,0.00,,,0.00,Wunderground v.1.15,2013-05-31 12:30:00,
2013-05-31 07:40:00,77.2,72.3,29.21,SW,229,11.0,13.0,85,0.00,,,0.00,Wunderground v.1.15,2013-05-31 12:40:00,
2013-05-31 07:50:00,77.2,72.3,29.21,SSE,165,10.0,13.0,85,0.00,,,0.00,Wunderground v.1.15,2013-05-31 12:50:00,
2013-05-31 07:55:00,77.2,72.3,29.22,SW,222,8.0,8.0,85,0.00,,,0.00,Wunderground v.1.15,2013-05-31 12:55:00,
2013-05-31 08:05:00,77.4,72.2,29.22,SW,217,8.0,13.0,84,0.00,,,0.00,Wunderground v.1.15,2013-05-31 13:05:00,
2013-05-31 08:15:00,77.6,72.4,29.22,SW,225,9.0,13.0,84,0.00,,,0.00,Wunderground v.1.15,2013-05-31 13:15:00,
2013-05-31 08:25:00,77.9,72.3,29.23,SSW,195,11.0,11.0,83,0.00,,,0.00,Wunderground v.1.15,2013-05-31 13:25:00,
2013-05-31 08:35:00,78.0,72.1,29.23,SSW,212,9.0,13.0,82,0.00,,,0.00,Wunderground v.1.15,2013-05-31 13:35:00,
2013-05-31 08:45:00,78.1,72.2,29.24,SW,214,10.0,10.0,82,0.00,,,0.00,Wunderground v.1.15,2013-05-31 13:45:00,
2013-05-31 08:55:00,78.1,72.2,29.24,South,173,10.0,10.0,82,0.00,,,0.00,Wunderground v.1.15,2013-05-31 13:55:00,
2013-05-31 09:01:00,78.2,72.3,29.24,SW,226,8.0,16.0,82,0.00,,,0.00,Wunderground v.1.15,2013-05-31 14:01:00,
2013-05-31 09:10:00,78.3,72.3,29.25,WSW,246,10.0,18.0,82,0.00,,,0.00,Wunderground v.1.15,2013-05-31 14:10:00,
2013-05-31 09:15:00,78.4,72.1,29.25,WSW,238,8.0,8.0,81,0.00,,,0.00,Wunderground v.1.15,2013-05-31 14:15:00,
2013-05-31 09:25:00,78.5,72.2,29.25,SSW,210,10.0,10.0,81,0.00,,,0.00,Wunderground v.1.15,2013-05-31 14:25:00,
2013-05-31 09:35:00,78.6,72.3,29.26,SSW,212,11.0,11.0,81,0.00,,,0.00,Wunderground v.1.15,2013-05-31 14:35:00,
2013-05-31 09:45:00,78.6,71.9,29.25,South,184,9.0,9.0,80,0.00,,,0.00,Wunderground v.1.15,2013-05-31 14:45:00,
2013-05-31 09:50:00,78.5,72.2,29.26,SW,220,9.0,9.0,81,0.00,,,0.00,Wunderground v.1.15,2013-05-31 14:50:00,
2013-05-31 10:00:00,78.6,72.3,29.25,SSW,210,9.0,14.0,81,0.00,,,0.00,Wunderground v.1.15,2013-05-31 15:00:00,
2013-05-31 10:10:00,78.6,72.3,29.25,WSW,246,8.0,8.0,81,0.00,,,0.00,Wunderground v.1.15,2013-05-31 15:10:00,
2013-05-31 10:20:00,78.8,72.5,29.25,SSW,210,7.0,7.0,81,0.00,,,0.00,Wunderground v.1.15,2013-05-31 15:20:00,
2013-05-31 10:30:00,78.9,72.6,29.24,SW,218,7.0,20.0,81,0.00,,,0.00,Wunderground v.1.15,2013-05-31 15:30:00,
2013-05-31 10:35:00,79.1,72.8,29.24,SSW,193,5.0,20.0,81,0.00,,,0.00,Wunderground v.1.15,2013-05-31 15:35:00,
2013-05-31 10:45:00,79.3,72.6,29.24,WSW,256,8.0,20.0,80,0.00,,,0.00,Wunderground v.1.15,2013-05-31 15:45:00,
2013-05-31 10:55:00,79.5,72.4,29.24,SSW,212,9.0,20.0,79,0.00,,,0.00,Wunderground v.1.15,2013-05-31 15:55:00,
2013-05-31 11:01:00,79.6,72.5,29.25,SW,232,10.0,10.0,79,0.00,,,0.00,Wunderground v.1.15,2013-05-31 16:01:00,
2013-05-31 11:10:00,79.7,72.2,29.25,South,191,8.0,20.0,78,0.00,,,0.00,Wunderground v.1.15,2013-05-31 16:10:00,
2013-05-31 11:15:00,79.8,72.3,29.25,West,275,8.0,8.0,78,0.00,,,0.00,Wunderground v.1.15,2013-05-31 16:15:00,
2013-05-31 11:25:00,79.9,72.4,29.25,West,266,8.0,20.0,78,0.00,,,0.00,Wunderground v.1.15,2013-05-31 16:25:00,
2013-05-31 11:35:00,80.0,72.5,29.25,SW,221,8.0,8.0,78,0.00,,,0.00,Wunderground v.1.15,2013-05-31 16:35:00,
2013-05-31 11:45:00,80.1,72.2,29.25,WSW,251,7.0,20.0,77,0.00,,,0.00,Wunderground v.1.15,2013-05-31 16:45:00,
2013-05-31 11:55:00,80.3,72.4,29.25,SW,226,9.0,9.0,77,0.00,,,0.00,Wunderground v.1.15,2013-05-31 16:55:00,
2013-05-31 12:05:00,80.3,72.8,29.25,WSW,256,6.0,20.0,78,0.00,,,0.00,Wunderground v.1.15,2013-05-31 17:05:00,
2013-05-31 12:15:00,80.3,73.2,29.25,SW,228,6.0,6.0,79,0.00,,,0.00,Wunderground v.1.15,2013-05-31 17:15:00,
2013-05-31 12:20:00,80.3,72.8,29.25,West,280,7.0,7.0,78,0.00,,,0.00,Wunderground v.1.15,2013-05-31 17:20:00,
2013-05-31 12:30:00,80.6,72.7,29.25,WSW,240,7.0,20.0,77,0.00,,,0.00,Wunderground v.1.15,2013-05-31 17:30:00,
2013-05-31 12:40:00,81.1,73.2,29.24,SSW,200,8.0,20.0,77,0.00,,,0.00,Wunderground v.1.15,2013-05-31 17:40:00,
2013-05-31 12:50:00,81.5,73.2,29.25,SW,226,9.0,10.0,76,0.00,,,0.00,Wunderground v.1.15,2013-05-31 17:50:00,
2013-05-31 13:05:00,82.1,73.4,29.24,SW,235,9.0,9.0,75,0.00,,,0.00,Wunderground v.1.15,2013-05-31 18:05:00,
2013-05-31 13:15:00,82.4,73.3,29.24,SSW,203,8.0,8.0,74,0.00,,,0.00,Wunderground v.1.15,2013-05-31 18:15:00,
2013-05-31 13:20:00,82.7,73.6,29.24,SW,226,6.0,20.0,74,0.00,,,0.00,Wunderground v.1.15,2013-05-31 18:20:00,
2013-05-31 13:30:00,82.9,72.9,29.24,SSW,203,9.0,20.0,72,0.00,,,0.00,Wunderground v.1.15,2013-05-31 18:30:00,
2013-05-31 13:40:00,83.3,72.9,29.24,SW,218,8.0,14.0,71,0.00,,,0.00,Wunderground v.1.15,2013-05-31 18:40:00,
2013-05-31 13:50:00,83.5,73.1,29.23,SW,214,9.0,20.0,71,0.00,,,0.00,Wunderground v.1.15,2013-05-31 18:50:00,
2013-05-31 13:55:00,83.7,73.7,29.23,SSW,204,9.0,20.0,72,0.00,,,0.00,Wunderground v.1.15,2013-05-31 18:55:00,
2013-05-31 14:05:00,83.9,73.5,29.23,West,273,7.0,20.0,71,0.00,,,0.00,Wunderground v.1.15,2013-05-31 19:05:00,
2013-05-31 14:15:00,83.7,73.3,29.23,SW,228,8.0,8.0,71,0.00,,,0.00,Wunderground v.1.15,2013-05-31 19:15:00,
2013-05-31 14:20:00,84.0,74.0,29.23,SSE,155,8.0,20.0,72,0.00,,,0.00,Wunderground v.1.15,2013-05-31 19:20:00,
2013-05-31 14:30:00,84.2,73.3,29.22,SW,227,7.0,20.0,70,0.00,,,0.00,Wunderground v.1.15,2013-05-31 19:30:00,
2013-05-31 14:40:00,84.2,73.3,29.22,SW,218,8.0,14.0,70,0.00,,,0.00,Wunderground v.1.15,2013-05-31 19:40:00,
2013-05-31 14:50:00,84.9,73.6,29.22,SW,225,8.0,20.0,69,0.00,,,0.00,Wunderground v.1.15,2013-05-31 19:50:00,
2013-05-31 15:05:00,85.4,73.6,29.21,SSW,212,9.0,20.0,68,0.00,,,0.00,Wunderground v.1.15,2013-05-31 20:05:00,
2013-05-31 15:15:00,85.6,73.4,29.21,SSE,163,9.0,9.0,67,0.00,,,0.00,Wunderground v.1.15,2013-05-31 20:15:00,
2013-05-31 15:20:00,85.7,73.0,29.21,SW,218,9.0,20.0,66,0.00,,,0.00,Wunderground v.1.15,2013-05-31 20:20:00,
2013-05-31 15:30:00,86.5,74.2,29.20,SE,130,9.0,20.0,67,0.00,,,0.00,Wunderground v.1.15,2013-05-31 20:30:00,
2013-05-31 15:40:00,86.1,74.3,29.21,SSE,152,8.0,20.0,68,0.00,,,0.00,Wunderground v.1.15,2013-05-31 20:40:00,
2013-05-31 15:45:00,85.9,74.1,29.20,SSE,164,8.0,20.0,68,0.00,,,0.00,Wunderground v.1.15,2013-05-31 20:45:00,
2013-05-31 15:55:00,86.0,73.8,29.20,SW,220,9.0,20.0,67,0.00,,,0.00,Wunderground v.1.15,2013-05-31 20:55:00,
2013-05-31 16:05:00,86.3,74.0,29.20,SSW,205,8.0,20.0,67,0.00,,,0.00,Wunderground v.1.15,2013-05-31 21:05:00,
2013-05-31 16:15:00,86.0,73.8,29.19,WSW,239,8.0,8.0,67,0.00,,,0.00,Wunderground v.1.15,2013-05-31 21:15:00,
2013-05-31 16:20:00,86.5,74.7,29.19,SSE,148,9.0,9.0,68,0.00,,,0.00,Wunderground v.1.15,2013-05-31 21:20:00,
2013-05-31 16:30:00,87.2,74.5,29.18,WSW,253,8.0,20.0,66,0.00,,,0.00,Wunderground v.1.15,2013-05-31 21:30:00,
2013-05-31 16:35:00,86.8,73.6,29.18,SW,217,9.0,20.0,65,0.00,,,0.00,Wunderground v.1.15,2013-05-31 21:35:00,
2013-05-31 16:45:00,86.9,74.6,29.18,SSW,203,10.0,20.0,67,0.00,,,0.00,Wunderground v.1.15,2013-05-31 21:45:00,
2013-05-31 16:55:00,87.3,74.5,29.18,SW,226,9.0,20.0,66,0.00,,,0.00,Wunderground v.1.15,2013-05-31 21:55:00,
2013-05-31 17:00:00,87.2,74.5,29.18,SSE,158,9.0,20.0,66,0.00,,,0.00,Wunderground v.1.15,2013-05-31 22:00:00,
2013-05-31 17:10:00,87.0,74.3,29.17,South,170,8.0,8.0,66,0.00,,,0.00,Wunderground v.1.15,2013-05-31 22:10:00,
2013-05-31 17:20:00,86.4,74.1,29.17,SSW,197,9.0,9.0,67,0.00,,,0.00,Wunderground v.1.15,2013-05-31 22:20:00,
2013-05-31 17:30:00,86.5,74.2,29.15,SSE,160,8.0,20.0,67,0.00,,,0.00,Wunderground v.1.15,2013-05-31 22:30:00,
2013-05-31 17:40:00,86.3,74.5,29.13,South,187,9.0,9.0,68,0.00,,,0.00,Wunderground v.1.15,2013-05-31 22:40:00,
2013-05-31 17:50:00,86.0,74.6,29.09,SW,217,10.0,20.0,69,0.00,,,0.00,Wunderground v.1.15,2013-05-31 22:50:00,
2013-05-31 18:00:00,85.6,74.7,29.08,West,277,10.0,10.0,70,0.00,,,0.00,Wunderground v.1.15,2013-05-31 23:00:00,
2013-05-31 18:10:00,84.9,74.0,29.11,South,191,9.0,20.0,70,0.00,,,0.00,Wunderground v.1.15,2013-05-31 23:10:00,
2013-05-31 18:20:00,84.6,74.2,29.12,SE,145,5.0,20.0,71,0.00,,,0.00,Wunderground v.1.15,2013-05-31 23:20:00,
2013-05-31 18:30:00,84.3,74.3,29.11,SW,235,6.0,6.0,72,0.00,,,0.00,Wunderground v.1.15,2013-05-31 23:30:00,
2013-05-31 18:40:00,83.8,74.2,29.12,SSE,165,5.0,5.0,73,0.00,,,0.00,Wunderground v.1.15,2013-05-31 23:40:00,
2013-05-31 18:50:00,83.4,74.2,29.13,SSW,193,5.0,20.0,74,0.00,,,0.00,Wunderground v.1.15,2013-05-31 23:50:00,
2013-05-31 19:00:00,83.2,74.0,29.13,SW,232,7.0,20.0,74,0.00,,,0.00,Wunderground v.1.15,2013-06-01 00:00:00,
2013-05-31 19:10:00,83.0,73.4,29.14,SSW,198,5.0,5.0,73,0.00,,,0.00,Wunderground v.1.15,2013-06-01 00:10:00,
2013-05-31 19:20:00,82.9,73.8,29.15,South,174,4.0,4.0,74,0.00,,,0.00,Wunderground v.1.15,2013-06-01 00:20:00,
2013-05-31 19:25:00,82.7,73.6,29.14,SSE,158,4.0,6.0,74,0.00,,,0.00,Wunderground v.1.15,2013-06-01 00:25:00,
2013-05-31 19:35:00,82.1,73.4,29.13,East,79,5.0,7.0,75,0.00,,,0.00,Wunderground v.1.15,2013-06-01 00:35:00,
2013-05-31 19:45:00,81.8,73.5,29.17,East,81,4.0,20.0,76,0.00,,,0.00,Wunderground v.1.15,2013-06-01 00:45:00,
2013-05-31 19:55:00,81.9,73.2,29.20,ESE,104,2.0,20.0,75,0.00,,,0.00,Wunderground v.1.15,2013-06-01 00:55:00,
2013-05-31 20:05:00,81.9,73.6,29.17,SE,145,8.0,20.0,76,0.00,,,0.00,Wunderground v.1.15,2013-06-01 01:05:00,
2013-05-31 20:15:00,81.9,73.6,29.17,SE,138,7.0,7.0,76,0.00,,,0.00,Wunderground v.1.15,2013-06-01 01:15:00,
2013-05-31 20:25:00,81.1,73.6,29.16,East,92,4.0,7.0,78,0.00,,,0.00,Wunderground v.1.15,2013-06-01 01:25:00,
2013-05-31 20:30:00,81.0,73.5,29.18,SSE,167,4.0,7.0,78,0.00,,,0.00,Wunderground v.1.15,2013-06-01 01:30:00,
2013-05-31 20:40:00,81.1,73.6,29.18,SSW,198,4.0,6.0,78,0.00,,,0.00,Wunderground v.1.15,2013-06-01 01:40:00,
2013-05-31 20:50:00,81.2,73.7,29.20,SW,230,3.0,3.0,78,0.00,,,0.00,Wunderground v.1.15,2013-06-01 01:50:00,
2013-05-31 21:05:00,81.1,73.2,29.19,East,92,3.0,3.0,77,0.00,,,0.00,Wunderground v.1.15,2013-06-01 02:05:00,
2013-05-31 21:15:00,80.1,73.7,29.15,East,98,7.0,11.0,81,0.00,,,0.00,Wunderground v.1.15,2013-06-01 02:15:00,
2013-05-31 21:25:00,79.4,73.4,29.13,East,98,9.0,12.0,82,0.00,,,0.00,Wunderground v.1.15,2013-06-01 02:25:00,
2013-05-31 21:35:00,79.3,73.3,29.16,SE,137,6.0,6.0,82,0.00,,,0.00,Wunderground v.1.15,2013-06-01 02:35:00,
2013-05-31 21:45:00,80.2,73.1,29.16,ESE,111,8.0,8.0,79,0.00,,,0.00,Wunderground v.1.15,2013-06-01 02:45:00,
2013-05-31 21:55:00,80.6,73.1,29.14,ESE,105,4.0,18.0,78,0.00,,,0.00,Wunderground v.1.15,2013-06-01 02:55:00,
2013-05-31 22:00:00,80.8,73.3,29.12,ESE,118,8.0,11.0,78,0.00,,,0.00,Wunderground v.1.15,2013-06-01 03:00:00,
2013-05-31 22:10:00,81.2,73.3,29.15,SSW,197,10.0,10.0,77,0.00,,,0.00,Wunderground v.1.15,2013-06-01 03:10:00,
2013-05-31 22:20:00,81.5,73.6,29.14,SSW,210,8.0,11.0,77,0.00,,,0.00,Wunderground v.1.15,2013-06-01 03:20:00,
2013-05-31 22:30:00,82.0,73.3,29.13,ENE,70,16.0,16.0,75,0.00,,,0.00,Wunderground v.1.15,2013-06-01 03:30:00,
2013-05-31 22:40:00,82.0,73.3,29.15,WSW,252,10.0,10.0,75,0.00,,,0.00,Wunderground v.1.15,2013-06-01 03:40:00,
2013-05-31 22:50:00,81.9,73.6,29.19,West,274,7.0,7.0,76,0.00,,,0.00,Wunderground v.1.15,2013-06-01 03:50:00,
2013-05-31 23:00:00,81.9,73.6,29.22,WNW,297,5.0,5.0,76,0.00,,,0.00,Wunderground v.1.15,2013-06-01 04:00:00,
2013-05-31 23:05:00,81.8,73.5,29.22,WSW,243,4.0,11.0,76,0.00,,,0.00,Wunderground v.1.15,2013-06-01 04:05:00,
2013-05-31 23:10:00,81.9,73.2,29.19,SSW,207,3.0,11.0,75,0.00,,,0.00,Wunderground v.1.15,2013-06-01 04:10:00,
2013-05-31 23:15:00,82.1,73.0,29.17,SSE,148,6.0,11.0,74,0.00,,,0.00,Wunderground v.1.15,2013-06-01 04:15:00,
2013-05-31 23:25:00,82.4,72.9,29.15,SSW,195,13.0,14.0,73,0.00,,,0.00,Wunderground v.1.15,2013-06-01 04:25:00,
2013-05-31 23:35:00,81.9,73.2,29.13,SSE,148,13.0,14.0,75,0.00,,,0.00,Wunderground v.1.15,2013-06-01 04:35:00,
2013-05-31 23:45:00,81.6,72.1,29.13,ESE,117,15.0,20.0,73,0.00,,,0.00,Wunderground v.1.15,2013-06-01 04:45:00,
2013-05-31 23:50:00,81.3,72.2,29.13,ENE,75,15.0,15.0,74,0.00,,,0.00,Wunderground v.1.15,2013-06-01 04:50:00,